createdAt,value
2023-03-17T00:01:54.556Z,100607.28
2023-03-17T00:04:24.516Z,100606.19
2023-03-17T00:06:53.268Z,100612.44
2023-03-17T00:09:22.294Z,100613.16
2023-03-17T00:11:50.320Z,100618.41
2023-03-17T00:14:19.736Z,100630.63
2023-03-17T00:16:52.817Z,100626.03
2023-03-17T00:19:35.321Z,100635.63
2023-03-17T00:22:06.185Z,100635.91
2023-03-17T00:24:34.552Z,100634.06
2023-03-17T00:27:02.715Z,100628.75
2023-03-17T00:29:31.552Z,100623.63
2023-03-17T00:31:59.934Z,100632.22
2023-03-17T00:34:29.901Z,100628.81
2023-03-17T00:36:57.423Z,100631.38
2023-03-17T00:39:25.568Z,100629.75
2023-03-17T00:41:55.250Z,100632.50
2023-03-17T00:44:22.732Z,100634.06
2023-03-17T00:46:54.266Z,100633.22
2023-03-17T00:49:24.112Z,100623.63
2023-03-17T00:51:52.791Z,100630.63
2023-03-17T00:54:23.019Z,100636.03
2023-03-17T00:56:52.738Z,100632.63
2023-03-17T00:59:42.840Z,100631.97
2023-03-17T01:02:13.264Z,100631.31
2023-03-17T01:04:45.575Z,100631.44
2023-03-17T01:07:15.945Z,100635.84
2023-03-17T01:09:45.232Z,100636.69
2023-03-17T01:12:14.218Z,100652.75
2023-03-17T01:14:43.730Z,100647.28
2023-03-17T01:17:18.404Z,100658.53
2023-03-17T01:19:47.977Z,100660.22
2023-03-17T01:22:15.692Z,100668.97
2023-03-17T01:24:43.324Z,100662.00
2023-03-17T01:27:11.603Z,100665.31
2023-03-17T01:29:39.490Z,100667.69
2023-03-17T01:32:07.340Z,100665.31
2023-03-17T01:34:35.222Z,100666.75
2023-03-17T01:37:02.869Z,100672.09
2023-03-17T01:39:30.631Z,100677.47
2023-03-17T01:42:18.830Z,100681.03
2023-03-17T01:45:37.325Z,100682.72
2023-03-17T01:48:05.031Z,100688.91
2023-03-17T01:50:34.932Z,100685.44
2023-03-17T01:53:03.510Z,100685.19
2023-03-17T01:55:31.637Z,100691.28
2023-03-17T01:57:59.855Z,100686.72
2023-03-17T02:00:27.704Z,100699.06
2023-03-17T02:02:57.189Z,100700.78
2023-03-17T02:05:27.682Z,100710.13
2023-03-17T02:07:56.260Z,100709.06
2023-03-17T02:10:33.642Z,100719.72
2023-03-17T02:13:05.581Z,100716.19
2023-03-17T02:15:40.438Z,100717.88
2023-03-17T02:18:09.807Z,100718.75
2023-03-17T02:20:37.605Z,100727.31
2023-03-17T02:23:07.558Z,100726.31
2023-03-17T02:25:36.934Z,100721.19
2023-03-17T02:28:10.969Z,100722.75
2023-03-17T02:30:40.596Z,100728.16
2023-03-17T02:33:12.406Z,100720.00
2023-03-17T02:35:42.400Z,100729.75
2023-03-17T02:38:10.908Z,100733.16
2023-03-17T02:40:38.475Z,100736.06
2023-03-17T02:43:07.324Z,100729.75
2023-03-17T02:45:34.913Z,100727.91
2023-03-17T02:48:07.299Z,100731.47
2023-03-17T02:50:34.916Z,100729.69
2023-03-17T02:53:02.411Z,100731.47
2023-03-17T02:55:30.294Z,100737.56
2023-03-17T02:57:58.280Z,100733.16
2023-03-17T03:00:26.578Z,100735.38
2023-03-17T03:02:54.870Z,100743.34
2023-03-17T03:05:24.088Z,100747.56
2023-03-17T03:07:53.456Z,100741.25
2023-03-17T03:10:21.508Z,100743.81
2023-03-17T03:12:53.352Z,100744.63
2023-03-17T03:15:21.599Z,100752.38
2023-03-17T03:17:50.604Z,100743.50
2023-03-17T03:20:21.438Z,100737.56
2023-03-17T03:22:49.268Z,100748.09
2023-03-17T03:25:17.217Z,100754.34
2023-03-17T03:27:46.791Z,100761.28
2023-03-17T03:30:14.669Z,100755.00
2023-03-17T03:32:44.066Z,100765.44
2023-03-17T03:35:11.732Z,100761.09
2023-03-17T03:37:39.585Z,100771.97
2023-03-17T03:40:07.709Z,100768.41
2023-03-17T03:42:35.552Z,100782.41
2023-03-17T03:45:03.203Z,100785.28
2023-03-17T03:47:31.203Z,100782.41
2023-03-17T03:50:00.176Z,100790.16
2023-03-17T03:52:27.829Z,100784.97
2023-03-17T03:54:55.768Z,100789.47
2023-03-17T03:57:23.210Z,100789.72
2023-03-17T03:59:51.131Z,100793.03
2023-03-17T04:02:18.720Z,100796.66
2023-03-17T04:04:47.038Z,100806.25
2023-03-17T04:07:14.817Z,100798.50
2023-03-17T04:09:42.618Z,100804.75
2023-03-17T04:12:10.540Z,100815.25
2023-03-17T04:14:38.260Z,100810.91
2023-03-17T04:17:06.260Z,100813.41
2023-03-17T04:19:33.953Z,100816.13
2023-03-17T04:22:05.410Z,100814.66
2023-03-17T04:24:34.778Z,100807.84
2023-03-17T04:27:04.878Z,100811.78
2023-03-17T04:29:36.481Z,100805.53
2023-03-17T04:32:04.863Z,100813.66
2023-03-17T04:34:34.967Z,100820.53
2023-03-17T04:37:02.591Z,100829.41
2023-03-17T04:39:33.791Z,100816.31
2023-03-17T04:42:01.562Z,100825.88
2023-03-17T04:44:29.652Z,100829.22
2023-03-17T04:46:59.452Z,100834.53
2023-03-17T04:49:28.173Z,100828.34
2023-03-17T04:51:55.856Z,100835.84
2023-03-17T04:54:24.767Z,100839.19
2023-03-17T04:56:52.660Z,100835.00
2023-03-17T04:59:20.341Z,100838.50
2023-03-17T05:01:48.035Z,100849.00
2023-03-17T05:04:28.862Z,100851.00
2023-03-17T05:06:58.610Z,100849.94
2023-03-17T05:09:28.726Z,100853.63
2023-03-17T05:11:58.940Z,100846.69
2023-03-17T05:14:26.794Z,100857.22
2023-03-17T05:16:54.405Z,100859.69
2023-03-17T05:19:23.560Z,100861.47
2023-03-17T05:21:51.641Z,100865.00
2023-03-17T05:24:19.207Z,100864.25
2023-03-17T05:26:47.207Z,100862.53
2023-03-17T05:29:14.771Z,100875.06
2023-03-17T05:31:44.984Z,100870.50
2023-03-17T05:34:12.654Z,100880.03
2023-03-17T05:36:40.271Z,100881.88
2023-03-17T05:39:07.821Z,100880.19
2023-03-17T05:41:36.315Z,100886.16
2023-03-17T05:44:05.917Z,100900.22
2023-03-17T05:46:37.927Z,100891.59
2023-03-17T05:49:07.706Z,100896.84
2023-03-17T05:51:37.057Z,100898.50
2023-03-17T05:54:05.155Z,100899.53
2023-03-17T05:56:34.989Z,100900.34
2023-03-17T05:59:04.714Z,100899.44
2023-03-17T06:01:32.483Z,100901.94
2023-03-17T06:04:01.829Z,100891.25
2023-03-17T06:06:29.640Z,100902.63
2023-03-17T06:08:57.110Z,100893.13
2023-03-17T06:11:24.591Z,100904.94
2023-03-17T06:13:58.173Z,100906.50
2023-03-17T06:16:25.875Z,100910.00
2023-03-17T06:18:53.376Z,100903.75
2023-03-17T06:21:21.402Z,100905.88
2023-03-17T06:23:49.024Z,100901.88
2023-03-17T06:26:16.843Z,100904.66
2023-03-17T06:28:44.451Z,100902.25
2023-03-17T06:31:12.112Z,100908.06
2023-03-17T06:33:39.781Z,100904.97
2023-03-17T06:36:08.263Z,100910.25
2023-03-17T06:38:36.171Z,100911.31
2023-03-17T06:41:04.889Z,100913.09
2023-03-17T06:43:32.707Z,100912.72
2023-03-17T06:46:04.476Z,100909.34
2023-03-17T06:48:32.202Z,100917.88
2023-03-17T06:51:00.852Z,100913.63
2023-03-17T06:53:28.452Z,100920.56
2023-03-17T06:55:56.445Z,100923.06
2023-03-17T06:58:24.988Z,100925.72
2023-03-17T07:00:54.219Z,100927.97
2023-03-17T07:03:22.543Z,100930.06
2023-03-17T07:05:50.141Z,100934.16
2023-03-17T07:08:18.079Z,100938.63
2023-03-17T07:10:45.993Z,100931.81
2023-03-17T07:13:17.957Z,100930.00
2023-03-17T07:15:45.744Z,100930.13
2023-03-17T07:18:13.618Z,100925.72
2023-03-17T07:20:41.617Z,100928.34
2023-03-17T07:23:29.231Z,100933.81
2023-03-17T07:25:59.935Z,100946.13
2023-03-17T07:28:27.552Z,100938.06
2023-03-17T07:30:57.893Z,100938.13
2023-03-17T07:33:25.896Z,100938.06
2023-03-17T07:35:56.558Z,100940.41
2023-03-17T07:38:24.172Z,100946.31
2023-03-17T07:40:53.166Z,100953.41
2023-03-17T07:43:22.633Z,100949.84
2023-03-17T07:45:50.199Z,100949.56
2023-03-17T07:48:19.171Z,100943.38
2023-03-17T07:50:47.962Z,100945.38
2023-03-17T07:53:15.599Z,100948.78
2023-03-17T07:55:44.715Z,100943.75
2023-03-17T07:58:15.180Z,100956.91
2023-03-17T08:00:48.700Z,100956.69
2023-03-17T08:03:16.985Z,100951.78
2023-03-17T08:05:45.630Z,100958.75
2023-03-17T08:08:22.205Z,100962.94
2023-03-17T08:10:50.887Z,100973.31
2023-03-17T08:13:18.901Z,100970.78
2023-03-17T08:15:47.214Z,100977.28
2023-03-17T08:18:14.943Z,100972.41
2023-03-17T08:20:42.539Z,100976.88
2023-03-17T08:23:10.704Z,100968.94
2023-03-17T08:25:39.582Z,100972.53
2023-03-17T08:28:08.047Z,100970.88
2023-03-17T08:30:38.617Z,100970.81
2023-03-17T08:33:06.459Z,100967.91
2023-03-17T08:35:37.402Z,100974.63
2023-03-17T08:38:05.146Z,100982.03
2023-03-17T08:40:32.728Z,100976.91
2023-03-17T08:43:00.534Z,100975.22
2023-03-17T08:45:29.007Z,100970.09
2023-03-17T08:47:58.524Z,100978.69
2023-03-17T08:50:27.087Z,100961.78
2023-03-17T08:52:55.169Z,100963.81
2023-03-17T08:55:22.898Z,100958.31
2023-03-17T08:57:50.528Z,100968.69
2023-03-17T09:00:23.352Z,100972.25
2023-03-17T09:02:51.246Z,100963.75
2023-03-17T09:05:19.610Z,100971.41
2023-03-17T09:07:50.106Z,100980.84
2023-03-17T09:10:22.658Z,100981.41
2023-03-17T09:12:51.838Z,100983.84
2023-03-17T09:15:22.418Z,100978.06
2023-03-17T09:17:50.115Z,100985.00
2023-03-17T09:20:17.768Z,100985.56
2023-03-17T09:22:47.800Z,100985.81
2023-03-17T09:25:16.727Z,100988.47
2023-03-17T09:27:48.249Z,100980.16
2023-03-17T09:30:19.452Z,100987.75
2023-03-17T09:32:47.137Z,100996.56
2023-03-17T09:35:15.297Z,100994.09
2023-03-17T09:37:42.795Z,100991.53
2023-03-17T09:40:17.231Z,100990.50
2023-03-17T09:42:56.743Z,101002.69
2023-03-17T09:45:33.648Z,101011.25
2023-03-17T09:48:39.088Z,101017.19
2023-03-17T09:51:13.170Z,101019.69
2023-03-17T09:53:49.481Z,101023.19
2023-03-17T09:56:20.042Z,101021.78
2023-03-17T09:58:52.948Z,101019.72
2023-03-17T10:01:22.887Z,101023.16
2023-03-17T10:03:51.694Z,101018.88
2023-03-17T10:06:42.765Z,101022.47
2023-03-17T10:09:33.811Z,101022.69
2023-03-17T10:12:15.359Z,101024.84
2023-03-17T10:15:00.716Z,101022.16
2023-03-17T10:17:34.503Z,101015.31
2023-03-17T10:20:11.978Z,101010.44
2023-03-17T10:22:54.821Z,101010.94
2023-03-17T10:25:26.399Z,101011.91
2023-03-17T10:28:01.996Z,101015.59
2023-03-17T10:30:33.822Z,101021.78
2023-03-17T10:33:05.002Z,101023.94
2023-03-17T10:35:36.469Z,101024.78
2023-03-17T10:38:23.379Z,101020.97
2023-03-17T10:41:03.568Z,101021.22
2023-03-17T10:43:46.026Z,101020.22
2023-03-17T10:46:25.233Z,101022.94
2023-03-17T10:49:02.245Z,101028.28
2023-03-17T10:51:37.405Z,101035.97
2023-03-17T10:54:19.974Z,101035.09
2023-03-17T10:56:50.392Z,101034.22
2023-03-17T11:02:07.728Z,101035.94
2023-03-17T11:04:39.967Z,101034.56
2023-03-17T11:07:40.916Z,101037.41
2023-03-17T11:10:26.871Z,101037.59
2023-03-17T11:13:00.436Z,101034.81
2023-03-17T11:15:38.014Z,101037.78
2023-03-17T11:18:33.285Z,101039.31
2023-03-17T11:21:10.330Z,101042.41
2023-03-17T11:23:47.204Z,101042.31
2023-03-17T11:26:39.342Z,101045.72
2023-03-17T11:29:32.654Z,101045.38
2023-03-17T11:32:39.008Z,101040.66
2023-03-17T11:35:15.400Z,101040.66
2023-03-17T11:38:12.435Z,101042.63
2023-03-17T11:41:24.441Z,101048.38
2023-03-17T11:44:21.316Z,101052.09
2023-03-17T11:47:15.124Z,101058.44
2023-03-17T11:49:46.056Z,101060.81
2023-03-17T11:52:14.746Z,101070.31
2023-03-17T11:54:59.679Z,101072.94
2023-03-17T11:57:27.580Z,101061.59
2023-03-17T12:00:07.784Z,101070.06
2023-03-17T12:02:47.702Z,101056.16
2023-03-17T12:05:30.120Z,101062.88
2023-03-17T12:08:25.073Z,101065.16
2023-03-17T12:10:56.655Z,101072.00
2023-03-17T12:13:43.016Z,101081.03
2023-03-17T12:16:32.114Z,101086.38
2023-03-17T12:19:37.807Z,101095.88
2023-03-17T12:22:36.589Z,101096.41
2023-03-17T12:25:20.880Z,101105.94
2023-03-17T12:28:00.819Z,101096.47
2023-03-17T12:30:37.319Z,101094.03
2023-03-17T12:33:17.121Z,101094.03
2023-03-17T12:35:45.589Z,101091.84
2023-03-17T12:38:40.920Z,101088.66
2023-03-17T12:41:31.567Z,101097.59
2023-03-17T12:44:03.171Z,101098.50
2023-03-17T12:46:50.254Z,101102.34
2023-03-17T12:49:37.371Z,101109.59
2023-03-17T12:52:43.948Z,101094.28
2023-03-17T12:55:17.283Z,101108.47
2023-03-17T12:57:48.453Z,101109.13
2023-03-17T13:00:25.506Z,101118.69
2023-03-17T13:03:22.313Z,101121.28
2023-03-17T13:05:55.225Z,101121.28
2023-03-17T13:08:33.747Z,101121.28
2023-03-17T13:11:29.688Z,101120.69
2023-03-17T13:14:13.280Z,101122.41
2023-03-17T13:16:46.922Z,101128.88
2023-03-17T13:19:20.337Z,101121.81
2023-03-17T13:21:51.076Z,101126.06
2023-03-17T13:24:22.674Z,101128.88
2023-03-17T13:26:55.061Z,101123.59
2023-03-17T13:29:32.791Z,101124.59
2023-03-17T13:32:21.900Z,101130.72
2023-03-17T13:34:55.729Z,101136.19
2023-03-17T13:37:31.265Z,101143.03
2023-03-17T13:40:35.367Z,101141.38
2023-03-17T13:43:21.378Z,101132.00
2023-03-17T13:45:49.781Z,101136.47
2023-03-17T13:48:33.726Z,101126.81
2023-03-17T13:51:18.720Z,101120.19
2023-03-17T13:53:56.997Z,101138.78
2023-03-17T13:56:47.984Z,101152.72
2023-03-17T13:59:33.089Z,101155.59
2023-03-17T14:02:12.385Z,101160.09
2023-03-17T14:04:52.712Z,101172.38
2023-03-17T14:07:24.680Z,101181.25
2023-03-17T14:09:59.029Z,101182.91
2023-03-17T14:12:46.882Z,101183.28
2023-03-17T14:15:28.201Z,101200.66
2023-03-17T14:18:03.198Z,101198.06
2023-03-17T14:20:31.221Z,101196.91
2023-03-17T14:23:01.820Z,101198.00
2023-03-17T14:25:38.564Z,101203.47
2023-03-17T14:28:11.192Z,101215.19
2023-03-17T14:30:39.414Z,101208.22
2023-03-17T14:33:26.630Z,101215.31
2023-03-17T14:36:00.837Z,101219.53
2023-03-17T14:38:37.362Z,101219.69
2023-03-17T14:41:06.088Z,101217.22
2023-03-17T14:43:35.481Z,101220.81
2023-03-17T14:46:05.827Z,101229.72
2023-03-17T14:48:36.966Z,101241.84
2023-03-17T14:51:24.749Z,101230.66
2023-03-17T14:53:54.326Z,101230.91
2023-03-17T14:56:42.564Z,101238.50
2023-03-17T14:59:25.449Z,101237.78
2023-03-17T15:01:58.258Z,101236.09
2023-03-17T15:04:29.828Z,101246.66
2023-03-17T15:07:02.832Z,101248.59
2023-03-17T15:09:33.807Z,101258.19
2023-03-17T15:12:17.992Z,101257.97
2023-03-17T15:14:47.070Z,101262.34
2023-03-17T15:17:19.147Z,101264.94
2023-03-17T15:20:00.106Z,101267.75
2023-03-17T15:22:42.071Z,101264.88
2023-03-17T15:25:31.504Z,101258.63
2023-03-17T15:27:59.271Z,101257.97
2023-03-17T15:30:37.457Z,101267.63
2023-03-17T15:33:30.611Z,101258.09
2023-03-17T15:36:00.342Z,101259.03
2023-03-17T15:38:29.710Z,101256.72
2023-03-17T15:40:58.062Z,101258.47
2023-03-17T15:43:27.595Z,101263.56
2023-03-17T15:45:59.932Z,101263.50
2023-03-17T15:48:31.978Z,101262.94
2023-03-17T15:51:01.528Z,101270.50
2023-03-17T15:53:32.228Z,101268.88
2023-03-17T15:56:00.468Z,101270.50
2023-03-17T15:58:28.465Z,101276.78
2023-03-17T16:01:00.010Z,101282.75
2023-03-17T16:03:37.146Z,101285.44
2023-03-17T16:06:13.795Z,101289.22
2023-03-17T16:08:42.355Z,101296.22
2023-03-17T16:11:28.373Z,101298.69
2023-03-17T16:14:02.236Z,101300.41
2023-03-17T16:16:36.550Z,101296.06
2023-03-17T16:19:05.918Z,101309.00
2023-03-17T16:21:36.244Z,101309.84
2023-03-17T16:24:03.861Z,101318.41
2023-03-17T16:26:31.689Z,101316.69
2023-03-17T16:29:01.998Z,101318.75
2023-03-17T16:31:30.754Z,101315.31
2023-03-17T16:33:58.349Z,101324.03
2023-03-17T16:36:26.316Z,101330.00
2023-03-17T16:38:54.039Z,101328.34
2023-03-17T16:41:24.310Z,101326.63
2023-03-17T16:44:01.307Z,101320.75
2023-03-17T16:46:35.154Z,101337.34
2023-03-17T16:49:07.206Z,101345.22
2023-03-17T16:51:34.749Z,101347.22
2023-03-17T16:54:03.223Z,101345.47
2023-03-17T16:56:31.683Z,101352.47
2023-03-17T16:58:59.881Z,101357.88
2023-03-17T17:01:29.243Z,101362.22
2023-03-17T17:03:57.254Z,101362.88
2023-03-17T17:06:26.959Z,101366.47
2023-03-17T17:08:54.521Z,101376.09
2023-03-17T17:11:22.131Z,101378.53
2023-03-17T17:13:51.817Z,101377.56
2023-03-17T17:16:19.479Z,101380.34
2023-03-17T17:18:47.447Z,101381.97
2023-03-17T17:21:15.220Z,101389.63
2023-03-17T17:23:42.957Z,101394.72
2023-03-17T17:26:12.877Z,101393.00
2023-03-17T17:28:40.496Z,101387.75
2023-03-17T17:31:08.955Z,101398.28
2023-03-17T17:33:37.336Z,101400.09
2023-03-17T17:36:07.612Z,101388.06
2023-03-17T17:38:35.150Z,101396.13
2023-03-17T17:41:05.610Z,101391.06
2023-03-17T17:43:33.849Z,101390.22
2023-03-17T17:46:02.597Z,101391.88
2023-03-17T17:48:32.155Z,101392.75
2023-03-17T17:50:59.725Z,101390.22
2023-03-17T17:53:28.103Z,101391.13
2023-03-17T17:55:56.263Z,101395.38
2023-03-17T17:58:26.602Z,101384.75
2023-03-17T18:00:57.246Z,101375.34
2023-03-17T18:03:26.694Z,101398.75
2023-03-17T18:05:56.476Z,101392.59
2023-03-17T18:08:25.684Z,101396.94
2023-03-17T18:10:59.991Z,101396.22
2023-03-17T18:13:28.439Z,101395.38
2023-03-17T18:15:56.408Z,101393.69
2023-03-17T18:18:25.402Z,101392.94
2023-03-17T18:20:54.339Z,101399.91
2023-03-17T18:23:23.127Z,101402.44
2023-03-17T18:25:52.082Z,101406.78
2023-03-17T18:28:19.882Z,101408.44
2023-03-17T18:30:47.845Z,101413.03
2023-03-17T18:33:19.757Z,101418.34
2023-03-17T18:35:49.727Z,101410.41
2023-03-17T18:38:18.002Z,101416.59
2023-03-17T18:40:45.860Z,101406.13
2023-03-17T18:43:13.794Z,101409.56
2023-03-17T18:45:42.637Z,101417.53
2023-03-17T18:48:10.364Z,101415.88
2023-03-17T18:50:38.790Z,101426.97
2023-03-17T18:53:07.309Z,101434.09
2023-03-17T18:55:41.237Z,101429.56
2023-03-17T18:58:08.759Z,101433.19
2023-03-17T19:00:36.495Z,101433.09
2023-03-17T19:03:04.194Z,101430.50
2023-03-17T19:05:37.584Z,101432.34
2023-03-17T19:08:07.696Z,101427.06
2023-03-17T19:10:37.074Z,101423.78
2023-03-17T19:13:05.209Z,101417.78
2023-03-17T19:15:36.792Z,101420.41
2023-03-17T19:18:05.665Z,101415.16
2023-03-17T19:20:34.568Z,101426.72
2023-03-17T19:23:04.528Z,101423.22
2023-03-17T19:25:32.533Z,101420.59
2023-03-17T19:28:00.188Z,101428.44
2023-03-17T19:30:29.423Z,101429.34
2023-03-17T19:32:57.653Z,101424.13
2023-03-17T19:35:25.936Z,101425.84
2023-03-17T19:37:53.444Z,101425.84
2023-03-17T19:40:22.426Z,101421.44
2023-03-17T19:42:51.498Z,101426.75
2023-03-17T19:45:19.510Z,101422.53
2023-03-17T19:47:50.405Z,101432.00
2023-03-17T19:50:17.928Z,101425.22
2023-03-17T19:52:46.292Z,101423.19
2023-03-17T19:55:13.848Z,101417.34
2023-03-17T19:57:42.038Z,101420.75
2023-03-17T20:00:11.097Z,101415.72
2023-03-17T20:02:39.733Z,101422.50
2023-03-17T20:05:08.542Z,101413.00
2023-03-17T20:07:37.309Z,101416.53
2023-03-17T20:10:07.111Z,101414.97
2023-03-17T20:12:39.593Z,101412.50
2023-03-17T20:15:09.118Z,101411.75
2023-03-17T20:17:36.910Z,101416.16
2023-03-17T20:20:12.314Z,101421.22
2023-03-17T20:22:43.803Z,101403.88
2023-03-17T20:25:12.415Z,101408.25
2023-03-17T20:27:42.539Z,101409.16
2023-03-17T20:30:12.411Z,101410.84
2023-03-17T20:32:40.115Z,101415.16
2023-03-17T20:35:08.773Z,101414.34
2023-03-17T20:37:37.346Z,101424.78
2023-03-17T20:40:13.850Z,101423.84
2023-03-17T20:42:42.970Z,101422.97
2023-03-17T20:45:10.563Z,101422.03
2023-03-17T20:47:38.142Z,101422.22
2023-03-17T20:50:08.670Z,101414.69
2023-03-17T20:52:37.293Z,101419.19
2023-03-17T20:55:06.220Z,101426.97
2023-03-17T20:57:36.448Z,101415.63
2023-03-17T21:00:04.872Z,101418.47
2023-03-17T21:02:33.767Z,101427.09
2023-03-17T21:05:01.845Z,101422.00
2023-03-17T21:07:30.511Z,101428.06
2023-03-17T21:09:59.615Z,101427.28
2023-03-17T21:12:32.906Z,101429.16
2023-03-17T21:15:00.849Z,101430.16
2023-03-17T21:17:28.782Z,101438.03
2023-03-17T21:19:57.057Z,101429.13
2023-03-17T21:22:24.772Z,101436.00
2023-03-17T21:24:53.216Z,101431.56
2023-03-17T21:27:21.528Z,101437.47
2023-03-17T21:29:49.318Z,101429.69
2023-03-17T21:32:16.870Z,101424.66
2023-03-17T21:34:45.130Z,101425.59
2023-03-17T21:37:13.013Z,101430.75
2023-03-17T21:39:41.208Z,101437.69
2023-03-17T21:42:09.781Z,101437.78
2023-03-17T21:44:38.479Z,101433.34
2023-03-17T21:47:06.109Z,101448.31
2023-03-17T21:49:33.670Z,101449.25
2023-03-17T21:52:01.853Z,101445.66
2023-03-17T21:54:30.506Z,101450.94
2023-03-17T21:57:05.626Z,101452.81
2023-03-17T21:59:35.777Z,101450.09
2023-03-17T22:02:03.712Z,101460.56
2023-03-17T22:04:32.490Z,101463.97
2023-03-17T22:07:00.126Z,101467.34
2023-03-17T22:09:29.338Z,101469.94
2023-03-17T22:11:57.655Z,101477.75
2023-03-17T22:14:25.672Z,101479.41
2023-03-17T22:16:53.445Z,101494.28
2023-03-17T22:19:21.557Z,101486.28
2023-03-17T22:21:49.863Z,101476.13
2023-03-17T22:24:18.183Z,101481.75
2023-03-17T22:26:46.630Z,101484.41
2023-03-17T22:29:15.148Z,101489.09
2023-03-17T22:31:42.872Z,101496.91
2023-03-17T22:34:10.393Z,101488.34
2023-03-17T22:36:39.096Z,101498.97
2023-03-17T22:39:10.564Z,101494.75
2023-03-17T22:41:39.204Z,101493.94
2023-03-17T22:44:09.155Z,101491.38
2023-03-17T22:46:38.581Z,101501.13
2023-03-17T22:49:07.967Z,101502.78
2023-03-17T22:51:36.636Z,101510.63
2023-03-17T22:54:12.317Z,101525.31
2023-03-17T22:56:41.089Z,101530.50
2023-03-17T22:59:08.868Z,101528.00
2023-03-17T23:01:36.795Z,101532.22
2023-03-17T23:04:04.343Z,101526.13
2023-03-17T23:06:32.708Z,101525.22
2023-03-17T23:09:00.268Z,101523.47
2023-03-17T23:11:28.157Z,101528.63
2023-03-17T23:14:00.825Z,101520.78
2023-03-17T23:16:28.657Z,101519.94
2023-03-17T23:18:58.274Z,101520.78
2023-03-17T23:21:36.809Z,101531.28
2023-03-17T23:24:07.742Z,101529.44
2023-03-17T23:26:37.141Z,101538.97
2023-03-17T23:29:07.018Z,101534.53
2023-03-17T23:31:38.405Z,101534.63
2023-03-17T23:34:07.500Z,101531.09
2023-03-17T23:36:40.056Z,101538.13
2023-03-17T23:39:08.661Z,101527.72
2023-03-17T23:41:37.790Z,101533.81
2023-03-17T23:44:06.620Z,101528.59
2023-03-17T23:46:34.537Z,101524.94
2023-03-17T23:49:02.854Z,101524.94
2023-03-17T23:51:30.452Z,101531.09
2023-03-17T23:53:59.169Z,101522.28
2023-03-17T23:56:29.197Z,101528.47
2023-03-17T23:58:56.965Z,101517.09
